Time;durP1;ratioP1;P1;durP2;ratioP2;P2;SDS_P1;SDS_P2;PMS_P1;PMS_P2;Temp;Humidity;BMP_temperature;BMP_pressure;BME280_temperature;BME280_humidity;BME280_pressure;Samples;Min_cycle;Max_cycle;Signal;HPM_P1;HPM_P2
2022/06/19 00:00:18;;;;;;;10.65;2.45;;;;;;;17.07;69.85;100763.34;5028565;28;20041;-73
2022/06/19 00:02:44;;;;;;;8.00;2.30;;;;;;;17.03;69.56;100764.66;5028100;28;20096;-74
2022/06/19 00:05:11;;;;;;;10.40;2.65;;;;;;;17.02;69.34;100775.78;5044545;28;20766;-72
2022/06/19 00:07:37;;;;;;;10.05;1.90;;;;;;;16.97;69.94;100778.13;5029579;28;20064;-74
2022/06/19 00:10:04;;;;;;;6.43;1.92;;;;;;;16.91;69.44;100765.88;5043295;28;20061;-74
2022/06/19 00:12:30;;;;;;;9.85;2.15;;;;;;;16.92;69.17;100753.88;5029502;28;20077;-73
2022/06/19 00:14:55;;;;;;;7.35;1.88;;;;;;;16.91;69.32;100752.13;5028404;28;20072;-73
2022/06/19 00:17:21;;;;;;;8.85;2.35;;;;;;;16.78;69.45;100758.00;5028523;28;20382;-74
2022/06/19 00:19:46;;;;;;;7.00;1.92;;;;;;;16.70;69.52;100749.66;5026703;28;20044;-75
2022/06/19 00:22:12;;;;;;;7.00;2.33;;;;;;;16.63;70.29;100753.16;5028463;28;20041;-73
2022/06/19 00:24:37;;;;;;;6.03;2.00;;;;;;;16.63;70.29;100755.88;5028828;28;20068;-75
2022/06/19 00:27:03;;;;;;;10.35;2.83;;;;;;;16.58;69.81;100764.59;5028849;28;20033;-74
2022/06/19 00:29:29;;;;;;;12.02;2.42;;;;;;;16.48;70.77;100772.00;5028928;28;20087;-72
2022/06/19 00:31:55;;;;;;;6.93;2.10;;;;;;;16.41;70.16;100785.47;5028062;28;20068;-74
2022/06/19 00:34:21;;;;;;;6.03;1.70;;;;;;;16.41;70.03;100779.97;5037697;28;20037;-73
2022/06/19 00:36:49;;;;;;;8.23;2.45;;;;;;;16.47;69.90;100795.00;5035828;28;20041;-74
2022/06/19 00:39:16;;;;;;;8.50;2.20;;;;;;;16.52;69.48;100793.53;5028355;28;20470;-74
2022/06/19 00:41:42;;;;;;;11.77;1.98;;;;;;;16.45;68.92;100780.53;5028566;28;20700;-72
2022/06/19 00:44:10;;;;;;;10.23;2.47;;;;;;;16.25;68.51;100775.13;5032017;28;20048;-75
2022/06/19 00:46:53;;;;;;;12.52;2.40;;;;;;;16.15;68.78;100785.28;5029908;28;20037;-74
2022/06/19 00:49:35;;;;;;;12.18;2.00;;;;;;;16.05;68.82;100778.94;5029659;28;20560;-76
2022/06/19 00:52:06;;;;;;;8.80;2.03;;;;;;;15.95;68.51;100786.34;5027639;28;20469;-72
2022/06/19 00:54:39;;;;;;;15.23;2.20;;;;;;;15.83;68.41;100785.63;5026705;28;20511;-74
2022/06/19 00:57:05;;;;;;;9.88;2.42;;;;;;;15.75;68.51;100780.00;5033366;28;20117;-74
2022/06/19 00:59:31;;;;;;;16.10;2.60;;;;;;;15.68;68.54;100779.72;5028187;28;20192;-75
2022/06/19 01:01:56;;;;;;;13.13;2.03;;;;;;;15.62;68.48;100773.91;5026946;28;20550;-73
2022/06/19 01:04:29;;;;;;;12.05;2.22;;;;;;;15.58;68.42;100781.59;5037189;28;20044;-74
2022/06/19 01:06:54;;;;;;;13.73;2.65;;;;;;;15.55;67.46;100780.00;5034577;28;20120;-74
2022/06/19 01:09:20;;;;;;;13.95;2.13;;;;;;;15.46;67.70;100769.03;5027683;28;20199;-73
2022/06/19 01:11:45;;;;;;;8.40;2.15;;;;;;;15.44;68.41;100771.06;5027855;28;20114;-75
2022/06/19 01:14:18;;;;;;;12.48;2.20;;;;;;;15.46;67.84;100782.72;5041753;28;20091;-74
2022/06/19 01:16:44;;;;;;;13.63;2.92;;;;;;;15.48;67.13;100805.38;5027117;28;20049;-73
2022/06/19 01:19:18;;;;;;;13.07;2.63;;;;;;;15.45;67.07;100897.03;5027211;28;20025;-74
2022/06/19 01:21:57;;;;;;;13.82;2.50;;;;;;;15.48;67.34;100958.94;5026705;28;20037;-72
2022/06/19 01:24:35;;;;;;;7.43;2.08;;;;;;;15.49;67.73;100922.28;5027719;28;20045;-73
2022/06/19 01:27:02;;;;;;;10.93;1.80;;;;;;;15.42;66.10;100844.34;5028391;28;20025;-76
2022/06/19 01:29:31;;;;;;;8.57;1.70;;;;;;;15.27;66.09;100847.50;5037248;28;20037;-75
2022/06/19 01:32:01;;;;;;;6.90;2.30;;;;;;;15.23;66.72;100909.09;5047474;28;20787;-73
2022/06/19 01:34:36;;;;;;;10.68;2.47;;;;;;;15.23;65.23;100910.97;5038615;28;20101;-72
2022/06/19 01:37:12;;;;;;;9.38;2.08;;;;;;;15.20;65.38;100850.94;5033236;28;20096;-68
2022/06/19 01:39:44;;;;;;;13.18;1.90;;;;;;;15.10;65.09;100845.44;5027404;28;20041;-74
2022/06/19 01:42:11;;;;;;;14.40;2.30;;;;;;;15.05;65.46;100902.53;5028504;28;20035;-73
2022/06/19 01:44:38;;;;;;;10.82;2.17;;;;;;;15.01;64.54;100923.88;5026509;28;20059;-74
2022/06/19 01:47:04;;;;;;;6.50;2.03;;;;;;;14.94;64.50;100880.72;5026568;28;20025;-76
2022/06/19 01:49:32;;;;;;;12.90;1.98;;;;;;;14.89;64.39;100883.03;5009490;28;20057;-74
2022/06/19 01:51:57;;;;;;;12.98;1.80;;;;;;;14.87;63.77;100910.53;5027379;28;20500;-74
2022/06/19 01:54:36;;;;;;;15.30;2.65;;;;;;;14.85;63.29;100873.34;5027240;28;20144;-73
2022/06/19 01:57:05;;;;;;;17.35;2.22;;;;;;;14.77;62.85;100890.44;5027555;28;20041;-69
2022/06/19 01:59:32;;;;;;;9.88;1.88;;;;;;;14.71;62.87;100900.09;5037300;28;20128;-76
2022/06/19 02:01:59;;;;;;;10.80;2.08;;;;;;;14.70;62.71;100890.16;5046767;28;20109;-72
2022/06/19 02:04:25;;;;;;;16.02;2.20;;;;;;;14.72;61.96;100900.94;5038065;28;20060;-73
2022/06/19 02:06:56;;;;;;;13.63;2.10;;;;;;;14.62;62.64;100911.00;5034258;28;20083;-74
2022/06/19 02:09:23;;;;;;;12.95;2.25;;;;;;;14.54;62.16;100909.78;5026903;28;20048;-75
2022/06/19 02:11:49;;;;;;;32.50;1.98;;;;;;;14.53;61.46;100901.72;5027283;28;20049;-74
2022/06/19 02:14:16;;;;;;;11.55;2.20;;;;;;;14.54;60.99;100917.13;5026457;28;20392;-74
2022/06/19 02:16:44;;;;;;;8.88;2.42;;;;;;;14.56;60.13;100889.66;5041299;28;20033;-73
2022/06/19 02:19:10;;;;;;;8.45;1.90;;;;;;;14.54;59.91;100889.75;5026649;28;20042;-75
2022/06/19 02:21:40;;;;;;;6.22;2.28;;;;;;;14.49;59.70;100892.03;5035650;28;20042;-75
2022/06/19 02:24:07;;;;;;;7.07;1.92;;;;;;;14.44;60.06;100903.34;5027151;28;20497;-74
2022/06/19 02:26:36;;;;;;;8.55;2.00;;;;;;;14.47;59.99;100894.03;5027214;28;20742;-76
2022/06/19 02:29:03;;;;;;;10.50;2.55;;;;;;;14.43;59.76;100893.41;5027077;28;20041;-71
2022/06/19 02:31:30;;;;;;;13.85;1.75;;;;;;;14.38;59.83;100906.63;5026787;28;20042;-73
2022/06/19 02:34:01;;;;;;;5.10;1.42;;;;;;;14.40;59.18;100909.22;5032741;28;20045;-75
2022/06/19 02:36:48;;;;;;;10.00;1.80;;;;;;;14.43;60.16;100920.78;5026839;28;20043;-73
2022/06/19 02:39:36;;;;;;;10.82;1.75;;;;;;;14.49;59.90;100912.06;5046631;28;20055;-75
2022/06/19 02:42:19;;;;;;;13.68;2.35;;;;;;;14.52;60.31;100917.28;5041285;28;20041;-68
2022/06/19 02:44:48;;;;;;;11.90;2.33;;;;;;;14.57;59.32;100916.00;5026164;28;20041;-71
2022/06/19 02:47:13;;;;;;;7.90;1.58;;;;;;;14.61;59.16;100912.00;5026126;28;20497;-74
2022/06/19 02:49:39;;;;;;;10.13;1.70;;;;;;;14.69;59.01;100914.94;5026060;28;20099;-74
2022/06/19 02:52:06;;;;;;;6.60;1.30;;;;;;;14.69;57.44;100896.63;5024523;28;20044;-75
2022/06/19 02:54:32;;;;;;;6.22;1.45;;;;;;;14.66;57.76;100905.09;5026863;28;20037;-70
2022/06/19 02:56:58;;;;;;;9.13;1.30;;;;;;;14.61;58.48;100910.13;5032597;28;20025;-73
2022/06/19 02:59:23;;;;;;;7.63;1.63;;;;;;;14.58;58.42;100950.59;5031358;28;20037;-73
2022/06/19 03:01:49;;;;;;;4.55;1.30;;;;;;;14.51;58.15;101026.94;5025929;28;20045;-75
2022/06/19 03:04:18;;;;;;;8.40;2.10;;;;;;;14.53;58.16;101041.34;5034798;28;20181;-73
2022/06/19 03:06:44;;;;;;;8.15;1.20;;;;;;;14.50;57.97;100997.78;5034967;28;20037;-75
2022/06/19 03:09:09;;;;;;;10.45;2.15;;;;;;;14.49;57.72;100964.06;5026460;28;20046;-70
2022/06/19 03:11:35;;;;;;;7.53;1.27;;;;;;;14.45;57.13;100939.81;5025990;28;20457;-74
2022/06/19 03:14:00;;;;;;;6.57;1.48;;;;;;;14.37;57.82;100937.75;5026992;28;20033;-75
2022/06/19 03:16:26;;;;;;;6.88;1.65;;;;;;;14.35;57.30;100956.16;5027961;28;20139;-74
2022/06/19 03:18:52;;;;;;;9.68;1.38;;;;;;;14.33;56.70;100933.53;5028518;28;20381;-74
2022/06/19 03:21:17;;;;;;;10.90;1.25;;;;;;;14.30;55.58;100925.59;5029734;28;20089;-75
2022/06/19 03:23:43;;;;;;;7.32;1.20;;;;;;;14.30;55.64;100898.22;5029798;28;20112;-76
2022/06/19 03:26:08;;;;;;;8.73;1.33;;;;;;;14.23;56.09;100892.44;5029829;28;20036;-74
2022/06/19 03:28:34;;;;;;;9.02;1.50;;;;;;;14.20;56.09;100900.03;5029264;28;20029;-76
2022/06/19 03:30:59;;;;;;;6.63;1.73;;;;;;;14.19;56.26;100928.41;5028214;28;20036;-73
2022/06/19 03:33:25;;;;;;;4.13;1.27;;;;;;;14.16;56.04;100937.72;5035050;28;20079;-72
2022/06/19 03:35:52;;;;;;;4.53;1.10;;;;;;;14.16;55.82;100909.50;5045001;28;20052;-76
2022/06/19 03:38:17;;;;;;;5.95;1.33;;;;;;;14.14;55.96;100876.81;5029532;28;20037;-74
2022/06/19 03:40:43;;;;;;;6.20;0.95;;;;;;;14.13;55.57;100853.19;5012001;28;20044;-75
2022/06/19 03:43:09;;;;;;;6.22;1.05;;;;;;;14.13;57.33;100865.97;5028991;28;20114;-73
2022/06/19 03:45:34;;;;;;;7.85;1.10;;;;;;;14.09;56.48;100870.88;5044143;28;20374;-75
2022/06/19 03:47:59;;;;;;;4.93;1.25;;;;;;;14.08;56.13;100824.47;5029867;28;20116;-73
2022/06/19 03:50:25;;;;;;;4.32;0.80;;;;;;;14.07;56.56;100852.84;5028086;28;20550;-73
2022/06/19 03:52:50;;;;;;;4.95;1.25;;;;;;;14.07;56.75;100894.75;5029673;28;20033;-74
2022/06/19 03:55:16;;;;;;;4.45;0.98;;;;;;;14.07;57.40;100963.13;5029306;28;20037;-74
2022/06/19 03:57:41;;;;;;;6.15;0.98;;;;;;;14.10;56.12;100984.78;5027894;28;20492;-76
2022/06/19 04:00:11;;;;;;;7.80;1.27;;;;;;;14.12;55.01;100969.09;5028624;28;20037;-75
2022/06/19 04:02:42;;;;;;;8.30;1.13;;;;;;;14.13;54.31;100909.75;5027329;28;20029;-73
2022/06/19 04:05:08;;;;;;;3.63;0.88;;;;;;;14.12;54.75;100932.66;5042965;28;20431;-75
2022/06/19 04:07:33;;;;;;;3.60;1.23;;;;;;;14.11;54.20;100900.84;5031010;28;20037;-73
2022/06/19 04:10:00;;;;;;;3.45;0.98;;;;;;;14.08;53.91;100876.47;5029776;28;20487;-72
2022/06/19 04:12:25;;;;;;;2.17;0.88;;;;;;;14.07;54.08;100867.38;5032645;28;20484;-77
2022/06/19 04:14:52;;;;;;;5.35;0.85;;;;;;;14.09;55.54;100840.78;5045814;28;20040;-76
2022/06/19 04:17:17;;;;;;;2.13;1.00;;;;;;;14.14;56.00;100824.84;5046062;28;20815;-75
2022/06/19 04:19:42;;;;;;;3.67;1.05;;;;;;;14.15;55.64;100784.66;5044175;28;20037;-75
2022/06/19 04:22:08;;;;;;;8.43;1.17;;;;;;;14.18;56.07;100781.66;5047785;28;20044;-76
2022/06/19 04:24:33;;;;;;;9.57;1.10;;;;;;;14.20;55.59;100747.66;5046212;28;20381;-75
2022/06/19 04:27:03;;;;;;;10.65;1.60;;;;;;;14.26;55.92;100738.91;5043914;28;20045;-74
2022/06/19 04:29:28;;;;;;;5.40;1.20;;;;;;;14.33;56.94;100749.31;5045025;28;20729;-74
2022/06/19 04:31:55;;;;;;;6.65;1.13;;;;;;;14.34;56.86;100727.28;5045080;28;20041;-74
2022/06/19 04:34:21;;;;;;;6.93;1.10;;;;;;;14.46;57.61;100730.78;5043826;28;20406;-73
2022/06/19 04:36:46;;;;;;;8.00;1.27;;;;;;;14.49;56.92;100745.06;5044280;28;20444;-76
2022/06/19 04:39:12;;;;;;;5.00;1.10;;;;;;;14.49;57.50;100742.34;5036838;28;20036;-74
2022/06/19 04:41:40;;;;;;;6.03;1.50;;;;;;;14.61;59.09;100736.78;5044708;28;20344;-74
2022/06/19 04:44:09;;;;;;;9.52;1.52;;;;;;;14.67;57.25;100731.59;5044070;28;20488;-73
2022/06/19 04:46:35;;;;;;;7.75;1.00;;;;;;;14.77;57.61;100735.19;5045736;28;20052;-72
2022/06/19 04:49:00;;;;;;;9.02;1.17;;;;;;;14.88;58.22;100736.97;5043103;28;20484;-76
2022/06/19 04:51:26;;;;;;;7.60;1.27;;;;;;;14.95;57.64;100701.66;5043517;28;20499;-74
2022/06/19 04:53:53;;;;;;;3.47;1.30;;;;;;;14.96;57.25;100668.63;5046324;28;20385;-74
2022/06/19 04:56:19;;;;;;;2.88;1.00;;;;;;;15.05;57.89;100661.41;5044792;28;20036;-73
2022/06/19 04:58:45;;;;;;;9.18;1.17;;;;;;;15.09;57.86;100668.34;5041724;28;20074;-75
2022/06/19 05:01:24;;;;;;;6.15;1.50;;;;;;;15.13;57.39;100672.53;5045838;28;20036;-75
2022/06/19 05:03:52;;;;;;;4.93;1.00;;;;;;;15.25;57.36;100676.84;5043139;28;20128;-74
2022/06/19 05:06:18;;;;;;;6.45;1.05;;;;;;;15.40;57.38;100707.41;5043357;28;20078;-75
2022/06/19 05:08:43;;;;;;;9.38;1.30;;;;;;;15.44;56.77;100741.75;5045769;28;20438;-75
2022/06/19 05:11:12;;;;;;;6.43;1.13;;;;;;;15.41;57.51;100749.41;5045706;28;20492;-75
2022/06/19 05:13:38;;;;;;;6.85;1.40;;;;;;;15.42;57.57;100738.28;5041544;28;20026;-72
2022/06/19 05:16:08;;;;;;;5.70;1.30;;;;;;;15.52;56.11;100746.50;5044630;28;20035;-71
2022/06/19 05:18:34;;;;;;;8.82;1.40;;;;;;;15.56;57.17;100748.81;5043545;28;20515;-72
2022/06/19 05:21:01;;;;;;;5.03;1.10;;;;;;;15.60;57.35;100754.00;5043727;28;20037;-70
2022/06/19 05:23:34;;;;;;;7.70;1.50;;;;;;;15.56;56.04;100757.03;5045644;28;20437;-73
2022/06/19 05:26:07;;;;;;;5.90;1.52;;;;;;;15.52;55.78;100776.66;5045854;28;20132;-73
2022/06/19 05:28:33;;;;;;;6.05;1.35;;;;;;;15.50;56.40;100785.03;5041145;28;20445;-73
2022/06/19 05:31:00;;;;;;;5.40;1.25;;;;;;;15.60;56.05;100795.16;5045121;28;20052;-73
2022/06/19 05:33:27;;;;;;;10.80;1.38;;;;;;;15.83;58.16;100821.28;5040989;28;20645;-71
2022/06/19 05:35:53;;;;;;;5.20;1.35;;;;;;;15.84;55.94;100839.47;5042775;28;20110;-73
2022/06/19 05:38:19;;;;;;;5.65;1.15;;;;;;;15.75;56.09;100870.53;5043574;28;20043;-72
2022/06/19 05:40:45;;;;;;;7.38;1.30;;;;;;;15.90;57.20;100880.06;5045122;28;20033;-72
2022/06/19 05:43:11;;;;;;;7.88;1.80;;;;;;;16.08;55.47;100867.31;5031581;28;20063;-71
2022/06/19 05:45:36;;;;;;;7.45;1.10;;;;;;;16.27;55.79;100871.06;5036698;28;20041;-73
2022/06/19 05:48:02;;;;;;;7.32;1.35;;;;;;;16.51;54.87;100870.59;5046289;28;20043;-68
2022/06/19 05:50:28;;;;;;;5.85;1.40;;;;;;;16.66;53.53;100873.72;5043594;28;20044;-68
2022/06/19 05:52:53;;;;;;;8.13;1.48;;;;;;;16.69;54.09;100879.75;5042898;28;20116;-73
2022/06/19 05:55:19;;;;;;;7.95;1.27;;;;;;;16.74;56.43;100882.97;5043197;28;20052;-72
2022/06/19 05:57:44;;;;;;;7.40;1.10;;;;;;;16.76;55.50;100867.19;5034018;28;20041;-74
2022/06/19 06:00:10;;;;;;;7.53;1.23;;;;;;;16.82;55.08;100896.81;5026356;28;20029;-72
2022/06/19 06:02:38;;;;;;;9.40;1.67;;;;;;;16.88;54.48;100920.09;5027572;28;20037;-71
2022/06/19 06:05:04;;;;;;;9.98;1.55;;;;;;;16.84;53.04;100932.41;5040678;28;20032;-72
2022/06/19 06:07:30;;;;;;;9.98;1.30;;;;;;;16.71;55.54;100920.84;5042789;28;20044;-73
2022/06/19 06:09:55;;;;;;;7.65;1.60;;;;;;;16.72;55.65;100939.09;5045364;28;20032;-70
2022/06/19 06:12:22;;;;;;;8.60;1.50;;;;;;;16.75;55.14;100958.88;5056974;28;20594;-71
2022/06/19 06:14:48;;;;;;;9.93;1.58;;;;;;;16.78;56.93;100958.56;5041829;28;20116;-74
2022/06/19 06:17:13;;;;;;;6.25;1.40;;;;;;;16.80;55.44;100958.44;5042631;28;20634;-70
2022/06/19 06:19:39;;;;;;;8.50;1.20;;;;;;;16.90;55.55;100972.16;5038556;28;20079;-72
2022/06/19 06:22:04;;;;;;;4.68;1.30;;;;;;;17.05;55.78;100984.41;5033065;28;20124;-72
2022/06/19 06:24:31;;;;;;;3.63;1.30;;;;;;;17.06;56.86;101006.22;5027063;28;20488;-71
2022/06/19 06:26:58;;;;;;;5.95;1.50;;;;;;;16.97;55.59;101020.91;5028762;28;20046;-72
2022/06/19 06:29:24;;;;;;;7.50;1.63;;;;;;;16.91;56.07;101064.56;5026718;28;20120;-72
2022/06/19 06:31:50;;;;;;;5.40;1.83;;;;;;;16.85;56.56;101066.03;5049420;28;20036;-71
2022/06/19 06:34:16;;;;;;;6.82;1.58;;;;;;;16.68;57.31;101063.97;5045202;28;20094;-69
2022/06/19 06:36:42;;;;;;;9.52;2.22;;;;;;;16.67;58.42;101096.09;5044705;28;20447;-71
2022/06/19 06:39:08;;;;;;;6.43;1.35;;;;;;;16.68;60.75;101147.25;5026829;28;20389;-69
2022/06/19 06:41:33;;;;;;;10.68;1.50;;;;;;;16.58;60.50;101202.19;5053361;28;20031;-67
2022/06/19 06:43:59;;;;;;;6.72;1.55;;;;;;;16.40;60.21;101181.91;5037272;28;20036;-68
2022/06/19 06:46:26;;;;;;;6.22;1.70;;;;;;;16.33;62.47;101184.38;5028878;28;20053;-69
2022/06/19 06:48:54;;;;;;;4.72;1.02;;;;;;;16.33;61.72;101189.00;5025438;28;20037;-68
2022/06/19 06:51:24;;;;;;;6.80;1.55;;;;;;;16.34;61.91;101187.97;5053232;28;20050;-69
2022/06/19 06:53:50;;;;;;;6.82;1.25;;;;;;;16.30;63.53;101187.38;5050453;28;20049;-68
2022/06/19 06:56:16;;;;;;;10.25;1.40;;;;;;;16.32;62.36;101174.41;5047243;28;20059;-71
2022/06/19 06:58:41;;;;;;;7.00;1.50;;;;;;;16.36;63.45;101153.00;5041714;28;20036;-73
2022/06/19 07:01:10;;;;;;;7.97;1.67;;;;;;;16.42;64.18;101163.44;5034215;28;20439;-72
2022/06/19 07:03:36;;;;;;;3.60;1.23;;;;;;;16.35;65.75;101154.00;5033728;28;20029;-72
2022/06/19 07:06:02;;;;;;;10.85;1.50;;;;;;;16.22;63.63;101150.66;5044262;28;20107;-70
2022/06/19 07:08:28;;;;;;;6.38;1.50;;;;;;;16.19;64.95;101150.94;5044073;28;20040;-72
2022/06/19 07:10:53;;;;;;;8.98;1.20;;;;;;;16.20;63.41;101156.28;5049968;28;20037;-70
2022/06/19 07:13:18;;;;;;;6.82;1.85;;;;;;;16.08;63.34;101165.63;5044260;28;20043;-73
2022/06/19 07:15:44;;;;;;;7.75;1.40;;;;;;;16.06;64.77;101165.78;5029834;28;20137;-74
2022/06/19 07:18:10;;;;;;;9.32;1.42;;;;;;;16.03;62.53;101176.16;5030421;28;20056;-72
2022/06/19 07:20:36;;;;;;;4.68;1.30;;;;;;;15.97;64.74;101207.78;5027962;28;20048;-74
2022/06/19 07:23:04;;;;;;;6.57;1.60;;;;;;;15.93;63.50;101214.53;5029917;28;20496;-73
2022/06/19 07:25:29;;;;;;;8.07;1.20;;;;;;;15.90;63.20;101202.97;5029093;28;20385;-73
2022/06/19 07:27:54;;;;;;;7.20;1.25;;;;;;;15.77;64.29;101184.00;5038227;28;20044;-71
2022/06/19 07:30:22;;;;;;;6.43;1.42;;;;;;;15.53;65.30;101143.13;5031905;28;20497;-70
2022/06/19 07:32:48;;;;;;;8.70;1.75;;;;;;;15.19;68.02;101099.47;5029414;28;20045;-71
2022/06/19 07:35:14;;;;;;;12.25;1.40;;;;;;;14.92;68.36;101102.78;5047386;28;20064;-70
2022/06/19 07:37:40;;;;;;;5.28;1.45;;;;;;;14.73;70.61;101077.97;5060483;28;20115;-71
2022/06/19 07:40:06;;;;;;;6.88;1.90;;;;;;;14.54;72.74;101045.81;5067315;28;20025;-73
2022/06/19 07:42:31;;;;;;;3.38;1.58;;;;;;;14.34;73.29;101025.59;5027548;28;20043;-70
2022/06/19 07:44:57;;;;;;;8.88;1.75;;;;;;;14.16;74.05;101029.91;5048470;28;20033;-71
2022/06/19 07:50:11;;;;;;;9.63;2.03;;;;;;;13.93;75.24;100996.28;5034792;28;20468;-72
2022/06/19 07:52:38;;;;;;;9.10;2.03;;;;;;;13.81;76.55;100973.56;5041994;28;20080;-72
2022/06/19 07:55:05;;;;;;;11.13;2.03;;;;;;;13.93;76.83;101004.47;5048023;28;20660;-72
2022/06/19 07:57:30;;;;;;;7.85;1.58;;;;;;;14.14;77.24;101070.22;5040955;28;20071;-71
2022/06/19 07:59:56;;;;;;;9.73;1.60;;;;;;;14.37;76.40;101126.63;5030337;28;20041;-71
2022/06/19 08:02:24;;;;;;;10.73;1.50;;;;;;;14.54;77.32;101155.34;5027181;28;20321;-72
2022/06/19 08:04:50;;;;;;;5.80;1.92;;;;;;;14.67;75.76;101166.13;5048315;28;20090;-69
2022/06/19 08:07:15;;;;;;;9.82;1.85;;;;;;;14.73;75.77;101136.34;5040369;28;20037;-72
2022/06/19 08:09:42;;;;;;;10.85;1.55;;;;;;;14.68;74.02;101110.34;5035996;28;20072;-72
2022/06/19 08:12:08;;;;;;;7.88;1.90;;;;;;;14.63;75.80;101087.97;5054492;28;20028;-72
2022/06/19 08:14:34;;;;;;;8.07;1.67;;;;;;;14.60;74.91;101091.00;5045701;28;20633;-72
2022/06/19 08:16:59;;;;;;;10.38;1.73;;;;;;;14.65;75.89;101075.03;5046129;28;20047;-73
2022/06/19 08:19:25;;;;;;;15.18;3.47;;;;;;;14.64;75.31;101070.53;5044398;28;20044;-72
2022/06/19 08:21:50;;;;;;;6.15;1.55;;;;;;;14.77;75.47;101118.66;5048900;28;20414;-70
2022/06/19 08:24:17;;;;;;;7.75;1.80;;;;;;;14.84;74.90;101120.88;5052916;28;20705;-71
2022/06/19 08:26:42;;;;;;;8.60;1.70;;;;;;;14.75;75.44;101084.19;5056999;28;20191;-71
2022/06/19 08:29:08;;;;;;;10.10;2.00;;;;;;;14.63;76.66;101077.88;5054155;28;20467;-70
2022/06/19 08:31:34;;;;;;;11.43;2.00;;;;;;;14.74;77.26;101077.84;5062349;28;20040;-71
2022/06/19 08:33:59;;;;;;;12.35;2.08;;;;;;;14.87;78.96;101069.41;5040175;28;20125;-72
2022/06/19 08:36:25;;;;;;;10.82;2.35;;;;;;;15.12;78.43;101062.66;5040722;28;20065;-71
2022/06/19 08:38:58;;;;;;;14.73;2.20;;;;;;;15.29;77.94;101051.09;5054126;28;20082;-71
2022/06/19 08:41:44;;;;;;;10.10;2.38;;;;;;;15.32;76.51;101036.22;5059981;28;20071;-72
2022/06/19 08:44:44;;;;;;;9.65;2.35;;;;;;;15.21;77.33;101023.47;5027849;28;20033;-71
2022/06/19 08:47:22;;;;;;;9.73;2.35;;;;;;;14.96;78.39;100991.03;5047432;28;20052;-72
2022/06/19 08:50:08;;;;;;;11.23;2.63;;;;;;;14.82;77.14;100969.47;5042964;28;20037;-71
2022/06/19 08:52:51;;;;;;;11.73;2.30;;;;;;;14.62;79.53;100969.34;5038843;28;20041;-70
2022/06/19 08:55:44;;;;;;;12.80;3.08;;;;;;;14.59;79.53;100975.09;5040383;28;20440;-71
2022/06/19 08:58:19;;;;;;;9.07;2.30;;;;;;;14.71;80.13;100976.78;5033494;28;20646;-72
2022/06/19 09:01:01;;;;;;;10.73;2.47;;;;;;;14.84;78.52;100978.44;5038117;28;20037;-70
2022/06/19 09:06:56;;;;;;;8.57;2.47;;;;;;;15.17;76.40;101008.31;5036635;28;20041;-70
2022/06/19 09:09:38;;;;;;;9.13;2.28;;;;;;;15.29;76.93;101012.72;5027446;28;20043;-70
2022/06/19 09:12:28;;;;;;;13.35;2.47;;;;;;;15.71;76.29;101025.44;5040513;28;20099;-69
2022/06/19 09:15:15;;;;;;;10.38;2.03;;;;;;;16.11;73.36;101019.88;5033676;28;20088;-71
2022/06/19 09:18:01;;;;;;;7.38;2.17;;;;;;;16.14;71.43;101052.56;5044853;28;20492;-69
2022/06/19 09:21:00;;;;;;;6.95;1.80;;;;;;;16.13;71.96;101085.59;5026712;28;20053;-69
2022/06/19 09:23:53;;;;;;;8.70;2.60;;;;;;;16.48;70.57;101118.91;5026890;28;20087;-70
2022/06/19 09:26:18;;;;;;;13.85;2.22;;;;;;;16.66;71.44;101112.72;5026802;28;20077;-71
2022/06/19 09:29:03;;;;;;;8.45;2.00;;;;;;;16.60;67.97;101103.19;5026519;28;20402;-70
2022/06/19 09:31:38;;;;;;;8.38;2.50;;;;;;;16.51;68.36;101107.66;5026737;28;20060;-70
2022/06/19 09:34:20;;;;;;;14.00;2.88;;;;;;;16.70;69.72;101108.69;5033653;28;20064;-70
2022/06/19 09:37:36;;;;;;;10.57;2.42;;;;;;;16.70;68.34;101104.06;5036843;28;20536;-70
2022/06/19 09:40:10;;;;;;;9.70;2.08;;;;;;;16.46;68.09;101087.09;5013869;28;20373;-70
2022/06/19 09:42:42;;;;;;;9.30;2.10;;;;;;;16.37;68.88;101085.22;5034525;28;20033;-70
2022/06/19 09:45:13;;;;;;;6.90;1.90;;;;;;;16.42;69.37;101080.19;5028434;28;20109;-70
2022/06/19 09:47:49;;;;;;;7.85;2.30;;;;;;;16.39;69.57;101064.00;5025861;28;20489;-70
2022/06/19 09:50:23;;;;;;;13.18;2.42;;;;;;;16.33;70.93;101038.84;5025988;28;20067;-70
2022/06/19 09:52:48;;;;;;;9.43;2.30;;;;;;;16.54;71.67;101026.84;5026774;28;20033;-70
2022/06/19 09:55:20;;;;;;;10.18;2.40;;;;;;;16.80;71.37;101032.63;5026621;28;20095;-70
2022/06/19 09:58:03;;;;;;;11.27;3.20;;;;;;;16.88;70.34;101034.63;5026771;28;20400;-70
2022/06/19 10:00:33;;;;;;;8.40;2.05;;;;;;;16.85;67.88;101041.31;5036908;28;20786;-71
2022/06/19 10:03:19;;;;;;;10.70;2.83;;;;;;;16.81;67.73;101020.63;5042911;28;20044;-70
2022/06/19 10:05:53;;;;;;;12.63;2.13;;;;;;;17.01;66.90;101021.44;5040753;28;20051;-70
2022/06/19 10:08:25;;;;;;;10.88;2.13;;;;;;;17.16;67.66;101003.47;5034916;28;20060;-70
2022/06/19 10:10:59;;;;;;;7.88;1.88;;;;;;;17.25;62.82;101005.31;5045752;28;20116;-70
2022/06/19 10:13:33;;;;;;;8.68;2.13;;;;;;;17.31;63.21;100990.09;5030134;28;20033;-70
2022/06/19 10:16:01;;;;;;;3.75;1.45;;;;;;;17.59;62.59;100997.34;5028517;28;20062;-70
2022/06/19 10:18:32;;;;;;;5.45;1.70;;;;;;;17.98;66.15;100986.13;5037833;28;20476;-70
2022/06/19 10:20:58;;;;;;;7.10;1.60;;;;;;;18.15;62.20;100983.53;5041042;28;20049;-71
2022/06/19 10:23:35;;;;;;;6.75;1.73;;;;;;;18.21;66.24;100967.25;5044880;28;20044;-70
2022/06/19 10:26:19;;;;;;;4.97;1.67;;;;;;;18.56;62.50;100946.22;5049300;28;20040;-71
2022/06/19 10:29:00;;;;;;;7.22;1.60;;;;;;;18.85;60.02;100960.56;5045256;28;20036;-70
2022/06/19 10:31:41;;;;;;;8.90;1.60;;;;;;;19.10;55.60;100966.22;5048531;28;20051;-71
2022/06/19 10:34:18;;;;;;;8.30;1.70;;;;;;;18.99;57.19;100953.59;5046682;28;20051;-71
2022/06/19 10:37:06;;;;;;;7.10;2.15;;;;;;;19.13;56.18;100982.47;5044014;28;20041;-71
2022/06/19 10:39:50;;;;;;;8.80;1.70;;;;;;;19.28;55.63;100990.97;5037789;28;20036;-69
2022/06/19 10:42:22;;;;;;;6.50;1.42;;;;;;;19.38;54.80;100984.31;5046186;28;20510;-71
2022/06/19 10:45:05;;;;;;;;;;;;;;;19.44;56.06;100976.38;5046295;28;20410;-72
2022/06/19 10:47:49;;;;;;;6.05;1.58;;;;;;;19.28;53.30;100969.78;5048682;28;19928;-71
2022/06/19 10:50:39;;;;;;;7.38;1.30;;;;;;;19.22;54.27;100964.06;5037574;28;20115;-72
2022/06/19 10:53:19;;;;;;;4.22;1.20;;;;;;;19.14;51.76;100986.94;5048633;28;20488;-71
2022/06/19 10:56:13;;;;;;;3.83;1.58;;;;;;;19.07;53.98;101000.53;5048817;28;20041;-71
2022/06/19 10:58:39;;;;;;;5.60;1.30;;;;;;;19.01;53.09;101006.66;5029465;28;20447;-71
2022/06/19 11:01:07;;;;;;;8.20;1.80;;;;;;;19.24;52.83;101018.03;5028849;28;20040;-72
2022/06/19 11:06:47;;;;;;;5.65;1.58;;;;;;;19.40;54.59;101036.59;5042436;28;20033;-71
2022/06/19 11:09:17;;;;;;;5.18;1.40;;;;;;;19.64;56.16;101024.84;5029734;28;20041;-72
2022/06/19 11:11:44;;;;;;;6.47;1.60;;;;;;;20.11;54.37;101027.06;5031502;28;20449;-72
2022/06/19 11:14:13;;;;;;;6.03;1.80;;;;;;;20.11;51.03;101025.16;5044265;28;20013;-71
2022/06/19 11:16:59;;;;;;;8.27;1.33;;;;;;;20.38;56.42;101031.44;5047358;28;20158;-70
2022/06/19 11:19:39;;;;;;;3.53;1.40;;;;;;;20.52;55.07;101029.94;5048067;28;20060;-72
2022/06/19 11:22:27;;;;;;;5.35;1.80;;;;;;;20.47;51.77;101038.75;5041114;28;20033;-72
2022/06/19 11:24:53;;;;;;;5.90;1.73;;;;;;;20.44;51.44;101068.59;5058053;28;20059;-72
2022/06/19 11:27:23;;;;;;;7.10;1.80;;;;;;;20.44;51.79;101063.06;5048954;28;20021;-71
2022/06/19 11:29:51;;;;;;;4.47;1.30;;;;;;;20.56;49.18;101059.84;5038826;28;20036;-70
2022/06/19 11:32:22;;;;;;;4.45;1.50;;;;;;;20.62;52.36;101059.13;5046774;28;20132;-71
2022/06/19 11:35:07;;;;;;;7.55;1.30;;;;;;;20.68;54.08;101065.00;5046211;28;20032;-73
2022/06/19 11:37:36;;;;;;;8.60;1.70;;;;;;;20.74;51.49;101061.56;5033100;28;20566;-71
2022/06/19 11:40:05;;;;;;;6.72;1.40;;;;;;;20.75;52.41;101068.81;5044602;28;20114;-70
2022/06/19 11:42:35;;;;;;;6.30;1.50;;;;;;;20.56;49.26;101072.75;5029880;28;20038;-72
2022/06/19 11:45:12;;;;;;;6.10;1.80;;;;;;;20.52;53.48;101063.97;5029515;28;20040;-71